sensor_id;sensor_type;location;lat;lon;timestamp;P1;durP1;ratioP1;P2;durP2;ratioP2
66575;SDS011;53428;47.686;16.584;2023-05-02T00:02:43;9.02;;;4.50;;
66575;SDS011;53428;47.686;16.584;2023-05-02T00:07:43;11.50;;;5.47;;
66575;SDS011;53428;47.686;16.584;2023-05-02T00:12:42;5.68;;;3.83;;
66575;SDS011;53428;47.686;16.584;2023-05-02T00:17:42;6.13;;;3.72;;
66575;SDS011;53428;47.686;16.584;2023-05-02T00:22:41;6.95;;;3.75;;
66575;SDS011;53428;47.686;16.584;2023-05-02T00:27:41;5.38;;;3.83;;
66575;SDS011;53428;47.686;16.584;2023-05-02T00:32:41;10.85;;;4.55;;
66575;SDS011;53428;47.686;16.584;2023-05-02T00:37:40;8.50;;;4.65;;
66575;SDS011;53428;47.686;16.584;2023-05-02T00:42:40;7.55;;;3.97;;
66575;SDS011;53428;47.686;16.584;2023-05-02T00:47:39;4.65;;;3.67;;
66575;SDS011;53428;47.686;16.584;2023-05-02T00:52:38;6.15;;;4.05;;
66575;SDS011;53428;47.686;16.584;2023-05-02T00:57:38;7.25;;;4.43;;
66575;SDS011;53428;47.686;16.584;2023-05-02T01:08:09;11.55;;;4.75;;
66575;SDS011;53428;47.686;16.584;2023-05-02T01:13:22;9.25;;;4.55;;
66575;SDS011;53428;47.686;16.584;2023-05-02T01:18:25;8.45;;;4.25;;
66575;SDS011;53428;47.686;16.584;2023-05-02T01:23:38;7.78;;;4.18;;
66575;SDS011;53428;47.686;16.584;2023-05-02T01:33:57;6.63;;;4.35;;
66575;SDS011;53428;47.686;16.584;2023-05-02T01:38:59;8.02;;;4.97;;
66575;SDS011;53428;47.686;16.584;2023-05-02T01:44:00;8.20;;;4.32;;
66575;SDS011;53428;47.686;16.584;2023-05-02T01:49:01;8.63;;;4.95;;
66575;SDS011;53428;47.686;16.584;2023-05-02T01:54:03;6.35;;;4.97;;
66575;SDS011;53428;47.686;16.584;2023-05-02T01:59:07;14.70;;;7.60;;
66575;SDS011;53428;47.686;16.584;2023-05-02T02:04:10;10.02;;;5.50;;
66575;SDS011;53428;47.686;16.584;2023-05-02T02:09:12;8.05;;;4.63;;
66575;SDS011;53428;47.686;16.584;2023-05-02T02:14:24;4.82;;;4.22;;
66575;SDS011;53428;47.686;16.584;2023-05-02T02:19:25;5.80;;;4.07;;
66575;SDS011;53428;47.686;16.584;2023-05-02T02:24:27;9.45;;;4.32;;
66575;SDS011;53428;47.686;16.584;2023-05-02T02:29:29;9.63;;;4.45;;
66575;SDS011;53428;47.686;16.584;2023-05-02T02:34:28;4.93;;;3.60;;
66575;SDS011;53428;47.686;16.584;2023-05-02T03:00:23;8.35;;;4.22;;
66575;SDS011;53428;47.686;16.584;2023-05-02T03:05:25;6.18;;;4.43;;
66575;SDS011;53428;47.686;16.584;2023-05-02T03:10:24;6.53;;;4.20;;
66575;SDS011;53428;47.686;16.584;2023-05-02T03:20:51;4.55;;;3.97;;
66575;SDS011;53428;47.686;16.584;2023-05-02T03:25:51;11.13;;;4.82;;
66575;SDS011;53428;47.686;16.584;2023-05-02T03:30:50;7.97;;;5.13;;
66575;SDS011;53428;47.686;16.584;2023-05-02T03:35:50;7.50;;;5.15;;
66575;SDS011;53428;47.686;16.584;2023-05-02T03:40:49;13.32;;;7.03;;
66575;SDS011;53428;47.686;16.584;2023-05-02T03:45:49;10.48;;;6.53;;
66575;SDS011;53428;47.686;16.584;2023-05-02T03:50:49;10.63;;;5.63;;
66575;SDS011;53428;47.686;16.584;2023-05-02T03:55:48;6.57;;;4.88;;
66575;SDS011;53428;47.686;16.584;2023-05-02T04:00:48;9.07;;;5.88;;
66575;SDS011;53428;47.686;16.584;2023-05-02T04:05:47;6.57;;;4.38;;
66575;SDS011;53428;47.686;16.584;2023-05-02T04:10:46;7.15;;;4.65;;
66575;SDS011;53428;47.686;16.584;2023-05-02T04:15:49;13.38;;;7.60;;
66575;SDS011;53428;47.686;16.584;2023-05-02T04:20:49;46.42;;;19.35;;
66575;SDS011;53428;47.686;16.584;2023-05-02T04:25:51;18.40;;;10.23;;
66575;SDS011;53428;47.686;16.584;2023-05-02T04:30:51;14.55;;;6.05;;
66575;SDS011;53428;47.686;16.584;2023-05-02T04:35:51;10.73;;;5.70;;
66575;SDS011;53428;47.686;16.584;2023-05-02T04:40:51;7.03;;;5.00;;
66575;SDS011;53428;47.686;16.584;2023-05-02T04:45:50;9.45;;;5.75;;
66575;SDS011;53428;47.686;16.584;2023-05-02T04:50:51;8.65;;;5.10;;
66575;SDS011;53428;47.686;16.584;2023-05-02T04:55:51;7.38;;;5.68;;
66575;SDS011;53428;47.686;16.584;2023-05-02T05:00:51;8.57;;;5.68;;
66575;SDS011;53428;47.686;16.584;2023-05-02T05:05:50;9.57;;;5.97;;
66575;SDS011;53428;47.686;16.584;2023-05-02T05:10:50;8.20;;;6.15;;
66575;SDS011;53428;47.686;16.584;2023-05-02T05:15:49;14.18;;;8.00;;
66575;SDS011;53428;47.686;16.584;2023-05-02T05:20:49;13.48;;;7.95;;
66575;SDS011;53428;47.686;16.584;2023-05-02T05:25:48;13.40;;;6.75;;
66575;SDS011;53428;47.686;16.584;2023-05-02T05:30:47;9.23;;;6.10;;
66575;SDS011;53428;47.686;16.584;2023-05-02T05:35:47;11.50;;;7.72;;
66575;SDS011;53428;47.686;16.584;2023-05-02T05:40:48;10.27;;;6.88;;
66575;SDS011;53428;47.686;16.584;2023-05-02T05:45:52;15.35;;;7.53;;
66575;SDS011;53428;47.686;16.584;2023-05-02T05:50:52;11.63;;;7.40;;
66575;SDS011;53428;47.686;16.584;2023-05-02T05:55:51;12.43;;;7.88;;
66575;SDS011;53428;47.686;16.584;2023-05-02T06:00:51;11.35;;;7.88;;
66575;SDS011;53428;47.686;16.584;2023-05-02T06:05:50;14.25;;;6.68;;
66575;SDS011;53428;47.686;16.584;2023-05-02T06:10:49;7.45;;;5.53;;
66575;SDS011;53428;47.686;16.584;2023-05-02T06:15:49;12.02;;;6.88;;
66575;SDS011;53428;47.686;16.584;2023-05-02T06:20:48;12.00;;;6.95;;
66575;SDS011;53428;47.686;16.584;2023-05-02T06:25:48;12.63;;;7.63;;
66575;SDS011;53428;47.686;16.584;2023-05-02T06:30:50;8.45;;;6.78;;
66575;SDS011;53428;47.686;16.584;2023-05-02T06:35:55;11.75;;;6.68;;
66575;SDS011;53428;47.686;16.584;2023-05-02T06:40:54;6.47;;;5.70;;
66575;SDS011;53428;47.686;16.584;2023-05-02T06:45:54;9.77;;;5.80;;
66575;SDS011;53428;47.686;16.584;2023-05-02T06:50:56;7.10;;;6.03;;
66575;SDS011;53428;47.686;16.584;2023-05-02T06:55:56;5.55;;;3.85;;
66575;SDS011;53428;47.686;16.584;2023-05-02T07:00:55;5.53;;;4.13;;
66575;SDS011;53428;47.686;16.584;2023-05-02T07:05:55;4.60;;;3.95;;
66575;SDS011;53428;47.686;16.584;2023-05-02T07:10:54;7.85;;;3.90;;
66575;SDS011;53428;47.686;16.584;2023-05-02T07:15:53;5.80;;;3.85;;
66575;SDS011;53428;47.686;16.584;2023-05-02T07:20:53;6.32;;;4.43;;
66575;SDS011;53428;47.686;16.584;2023-05-02T07:25:53;4.57;;;3.90;;
66575;SDS011;53428;47.686;16.584;2023-05-02T07:30:52;4.22;;;3.72;;
66575;SDS011;53428;47.686;16.584;2023-05-02T07:35:51;4.78;;;3.83;;
66575;SDS011;53428;47.686;16.584;2023-05-02T07:40:50;4.60;;;3.58;;
66575;SDS011;53428;47.686;16.584;2023-05-02T07:45:50;6.47;;;4.30;;
66575;SDS011;53428;47.686;16.584;2023-05-02T07:50:49;4.55;;;4.13;;
66575;SDS011;53428;47.686;16.584;2023-05-02T07:55:48;5.20;;;3.90;;
66575;SDS011;53428;47.686;16.584;2023-05-02T08:00:48;6.90;;;4.43;;
66575;SDS011;53428;47.686;16.584;2023-05-02T08:05:48;5.00;;;4.10;;
66575;SDS011;53428;47.686;16.584;2023-05-02T08:10:47;8.95;;;4.85;;
66575;SDS011;53428;47.686;16.584;2023-05-02T08:15:48;5.45;;;4.80;;
66575;SDS011;53428;47.686;16.584;2023-05-02T08:20:48;7.10;;;5.25;;
66575;SDS011;53428;47.686;16.584;2023-05-02T08:25:48;7.32;;;5.32;;
66575;SDS011;53428;47.686;16.584;2023-05-02T08:30:47;6.43;;;5.35;;
66575;SDS011;53428;47.686;16.584;2023-05-02T08:35:47;6.60;;;5.70;;
66575;SDS011;53428;47.686;16.584;2023-05-02T08:40:47;6.45;;;5.40;;
66575;SDS011;53428;47.686;16.584;2023-05-02T08:45:46;7.03;;;4.93;;
66575;SDS011;53428;47.686;16.584;2023-05-02T08:50:50;6.28;;;5.47;;
66575;SDS011;53428;47.686;16.584;2023-05-02T08:55:51;6.15;;;5.38;;
66575;SDS011;53428;47.686;16.584;2023-05-02T09:00:51;6.78;;;5.90;;
66575;SDS011;53428;47.686;16.584;2023-05-02T09:06:04;6.53;;;5.70;;
66575;SDS011;53428;47.686;16.584;2023-05-02T09:11:04;7.80;;;6.22;;
66575;SDS011;53428;47.686;16.584;2023-05-02T09:16:05;6.88;;;5.32;;
66575;SDS011;53428;47.686;16.584;2023-05-02T09:21:07;6.75;;;5.28;;
66575;SDS011;53428;47.686;16.584;2023-05-02T09:26:11;8.52;;;5.40;;
66575;SDS011;53428;47.686;16.584;2023-05-02T09:31:21;5.18;;;4.38;;
66575;SDS011;53428;47.686;16.584;2023-05-02T09:36:25;5.72;;;4.20;;
66575;SDS011;53428;47.686;16.584;2023-05-02T09:41:24;4.75;;;3.90;;
66575;SDS011;53428;47.686;16.584;2023-05-02T09:46:24;4.85;;;4.13;;
66575;SDS011;53428;47.686;16.584;2023-05-02T09:51:24;5.78;;;4.15;;
66575;SDS011;53428;47.686;16.584;2023-05-02T09:56:23;4.38;;;3.45;;
66575;SDS011;53428;47.686;16.584;2023-05-02T10:01:23;3.47;;;3.17;;
66575;SDS011;53428;47.686;16.584;2023-05-02T10:06:22;4.20;;;3.25;;
66575;SDS011;53428;47.686;16.584;2023-05-02T10:11:21;2.97;;;2.53;;
66575;SDS011;53428;47.686;16.584;2023-05-02T10:16:25;6.93;;;2.78;;
66575;SDS011;53428;47.686;16.584;2023-05-02T10:21:26;3.15;;;2.90;;
66575;SDS011;53428;47.686;16.584;2023-05-02T10:26:26;2.80;;;2.55;;
66575;SDS011;53428;47.686;16.584;2023-05-02T10:31:32;3.00;;;2.70;;
66575;SDS011;53428;47.686;16.584;2023-05-02T10:36:32;2.58;;;2.22;;
66575;SDS011;53428;47.686;16.584;2023-05-02T10:41:32;5.22;;;2.28;;
66575;SDS011;53428;47.686;16.584;2023-05-02T10:51:33;3.70;;;2.80;;
66575;SDS011;53428;47.686;16.584;2023-05-02T10:56:36;6.05;;;2.33;;
66575;SDS011;53428;47.686;16.584;2023-05-02T11:02:01;2.90;;;2.30;;
66575;SDS011;53428;47.686;16.584;2023-05-02T11:12:03;3.70;;;2.35;;
66575;SDS011;53428;47.686;16.584;2023-05-02T11:37:54;3.67;;;2.50;;
66575;SDS011;53428;47.686;16.584;2023-05-02T11:42:58;7.75;;;2.53;;
66575;SDS011;53428;47.686;16.584;2023-05-02T11:47:57;4.07;;;2.10;;
66575;SDS011;53428;47.686;16.584;2023-05-02T11:52:57;4.70;;;2.92;;
66575;SDS011;53428;47.686;16.584;2023-05-02T11:57:56;3.90;;;3.35;;
66575;SDS011;53428;47.686;16.584;2023-05-02T12:02:56;3.40;;;3.08;;
66575;SDS011;53428;47.686;16.584;2023-05-02T12:07:55;3.75;;;3.22;;
66575;SDS011;53428;47.686;16.584;2023-05-02T12:13:02;4.28;;;3.35;;
66575;SDS011;53428;47.686;16.584;2023-05-02T12:18:03;6.20;;;3.72;;
66575;SDS011;53428;47.686;16.584;2023-05-02T12:23:03;4.15;;;3.45;;
66575;SDS011;53428;47.686;16.584;2023-05-02T12:28:04;6.88;;;3.40;;
66575;SDS011;53428;47.686;16.584;2023-05-02T12:33:04;4.13;;;3.42;;
66575;SDS011;53428;47.686;16.584;2023-05-02T12:38:07;3.75;;;2.70;;
66575;SDS011;53428;47.686;16.584;2023-05-02T12:43:21;4.25;;;2.72;;
66575;SDS011;53428;47.686;16.584;2023-05-02T12:48:25;3.78;;;3.33;;
66575;SDS011;53428;47.686;16.584;2023-05-02T12:53:38;4.57;;;3.55;;
66575;SDS011;53428;47.686;16.584;2023-05-02T12:58:40;3.53;;;3.17;;
66575;SDS011;53428;47.686;16.584;2023-05-02T13:03:41;5.93;;;3.53;;
66575;SDS011;53428;47.686;16.584;2023-05-02T13:08:41;3.03;;;2.72;;
66575;SDS011;53428;47.686;16.584;2023-05-02T13:13:40;4.20;;;3.00;;
66575;SDS011;53428;47.686;16.584;2023-05-02T13:18:39;5.00;;;3.13;;
66575;SDS011;53428;47.686;16.584;2023-05-02T13:23:39;3.15;;;2.95;;
66575;SDS011;53428;47.686;16.584;2023-05-02T13:28:38;6.45;;;3.03;;
66575;SDS011;53428;47.686;16.584;2023-05-02T13:33:38;3.88;;;3.47;;
66575;SDS011;53428;47.686;16.584;2023-05-02T13:38:37;5.00;;;3.85;;
66575;SDS011;53428;47.686;16.584;2023-05-02T13:43:37;9.82;;;4.72;;
66575;SDS011;53428;47.686;16.584;2023-05-02T13:48:38;5.75;;;3.97;;
66575;SDS011;53428;47.686;16.584;2023-05-02T13:53:37;5.80;;;4.10;;
66575;SDS011;53428;47.686;16.584;2023-05-02T13:58:36;4.63;;;4.13;;
66575;SDS011;53428;47.686;16.584;2023-05-02T14:03:36;7.50;;;4.60;;
66575;SDS011;53428;47.686;16.584;2023-05-02T14:08:35;5.45;;;4.22;;
66575;SDS011;53428;47.686;16.584;2023-05-02T14:13:34;6.07;;;4.32;;
66575;SDS011;53428;47.686;16.584;2023-05-02T14:18:34;6.90;;;4.50;;
66575;SDS011;53428;47.686;16.584;2023-05-02T14:23:33;4.55;;;3.83;;
66575;SDS011;53428;47.686;16.584;2023-05-02T14:28:33;7.25;;;4.18;;
66575;SDS011;53428;47.686;16.584;2023-05-02T14:33:32;4.38;;;3.80;;
66575;SDS011;53428;47.686;16.584;2023-05-02T14:38:32;5.65;;;3.78;;
66575;SDS011;53428;47.686;16.584;2023-05-02T14:43:31;6.70;;;3.85;;
66575;SDS011;53428;47.686;16.584;2023-05-02T14:48:30;4.90;;;4.10;;
66575;SDS011;53428;47.686;16.584;2023-05-02T14:53:30;3.80;;;3.38;;
66575;SDS011;53428;47.686;16.584;2023-05-02T14:58:29;6.07;;;3.85;;
66575;SDS011;53428;47.686;16.584;2023-05-02T15:03:29;3.90;;;3.58;;
66575;SDS011;53428;47.686;16.584;2023-05-02T15:08:31;4.70;;;4.20;;
66575;SDS011;53428;47.686;16.584;2023-05-02T15:13:32;4.53;;;3.97;;
66575;SDS011;53428;47.686;16.584;2023-05-02T15:18:31;5.18;;;4.68;;
66575;SDS011;53428;47.686;16.584;2023-05-02T15:23:30;4.90;;;4.40;;
66575;SDS011;53428;47.686;16.584;2023-05-02T15:28:30;5.35;;;4.07;;
66575;SDS011;53428;47.686;16.584;2023-05-02T15:33:32;6.40;;;4.28;;
66575;SDS011;53428;47.686;16.584;2023-05-02T15:38:31;5.75;;;4.20;;
66575;SDS011;53428;47.686;16.584;2023-05-02T15:48:33;6.40;;;4.65;;
66575;SDS011;53428;47.686;16.584;2023-05-02T15:53:33;5.65;;;5.03;;
66575;SDS011;53428;47.686;16.584;2023-05-02T15:58:37;5.43;;;4.75;;
66575;SDS011;53428;47.686;16.584;2023-05-02T16:03:39;5.78;;;4.50;;
66575;SDS011;53428;47.686;16.584;2023-05-02T16:08:38;4.72;;;4.32;;
66575;SDS011;53428;47.686;16.584;2023-05-02T16:13:38;6.85;;;4.93;;
66575;SDS011;53428;47.686;16.584;2023-05-02T16:18:38;7.03;;;4.97;;
66575;SDS011;53428;47.686;16.584;2023-05-02T16:23:37;7.25;;;5.53;;
66575;SDS011;53428;47.686;16.584;2023-05-02T16:28:36;7.28;;;6.30;;
66575;SDS011;53428;47.686;16.584;2023-05-02T16:33:36;9.80;;;6.85;;
66575;SDS011;53428;47.686;16.584;2023-05-02T16:38:36;9.15;;;6.88;;
66575;SDS011;53428;47.686;16.584;2023-05-02T16:43:36;11.50;;;7.18;;
66575;SDS011;53428;47.686;16.584;2023-05-02T16:48:35;7.50;;;6.68;;
66575;SDS011;53428;47.686;16.584;2023-05-02T16:53:34;8.95;;;6.75;;
66575;SDS011;53428;47.686;16.584;2023-05-02T16:58:34;7.03;;;6.28;;
66575;SDS011;53428;47.686;16.584;2023-05-02T17:03:33;8.77;;;6.05;;
66575;SDS011;53428;47.686;16.584;2023-05-02T17:08:32;8.25;;;6.30;;
66575;SDS011;53428;47.686;16.584;2023-05-02T17:13:35;8.77;;;6.97;;
66575;SDS011;53428;47.686;16.584;2023-05-02T17:18:34;8.00;;;6.13;;
66575;SDS011;53428;47.686;16.584;2023-05-02T17:23:34;9.02;;;6.38;;
66575;SDS011;53428;47.686;16.584;2023-05-02T17:28:34;9.05;;;5.93;;
66575;SDS011;53428;47.686;16.584;2023-05-02T17:33:34;8.98;;;6.50;;
66575;SDS011;53428;47.686;16.584;2023-05-02T17:38:34;7.93;;;6.35;;
66575;SDS011;53428;47.686;16.584;2023-05-02T17:43:33;8.18;;;6.88;;
66575;SDS011;53428;47.686;16.584;2023-05-02T17:48:33;11.00;;;6.53;;
66575;SDS011;53428;47.686;16.584;2023-05-02T17:53:33;7.55;;;6.55;;
66575;SDS011;53428;47.686;16.584;2023-05-02T17:58:35;11.63;;;7.60;;
66575;SDS011;53428;47.686;16.584;2023-05-02T18:03:35;8.13;;;6.47;;
66575;SDS011;53428;47.686;16.584;2023-05-02T18:08:36;10.88;;;8.80;;
66575;SDS011;53428;47.686;16.584;2023-05-02T18:13:35;9.82;;;6.93;;
66575;SDS011;53428;47.686;16.584;2023-05-02T18:18:37;10.80;;;7.72;;
66575;SDS011;53428;47.686;16.584;2023-05-02T18:23:37;10.32;;;7.40;;
66575;SDS011;53428;47.686;16.584;2023-05-02T18:28:38;10.35;;;8.05;;
66575;SDS011;53428;47.686;16.584;2023-05-02T18:33:38;8.77;;;7.13;;
66575;SDS011;53428;47.686;16.584;2023-05-02T18:38:39;14.45;;;8.60;;
66575;SDS011;53428;47.686;16.584;2023-05-02T18:43:40;10.57;;;8.20;;
66575;SDS011;53428;47.686;16.584;2023-05-02T18:48:39;14.95;;;9.45;;
66575;SDS011;53428;47.686;16.584;2023-05-02T18:53:39;13.70;;;9.35;;
66575;SDS011;53428;47.686;16.584;2023-05-02T18:58:39;15.70;;;9.32;;
66575;SDS011;53428;47.686;16.584;2023-05-02T19:03:41;15.65;;;11.45;;
66575;SDS011;53428;47.686;16.584;2023-05-02T19:08:41;12.82;;;10.50;;
66575;SDS011;53428;47.686;16.584;2023-05-02T19:13:42;11.30;;;9.65;;
66575;SDS011;53428;47.686;16.584;2023-05-02T19:18:42;17.52;;;11.32;;
66575;SDS011;53428;47.686;16.584;2023-05-02T19:23:43;17.50;;;11.63;;
66575;SDS011;53428;47.686;16.584;2023-05-02T19:28:42;14.30;;;10.55;;
66575;SDS011;53428;47.686;16.584;2023-05-02T19:33:43;14.48;;;10.13;;
66575;SDS011;53428;47.686;16.584;2023-05-02T19:38:49;13.07;;;9.95;;
66575;SDS011;53428;47.686;16.584;2023-05-02T19:43:51;12.90;;;9.70;;
66575;SDS011;53428;47.686;16.584;2023-05-02T19:48:51;10.82;;;8.38;;
66575;SDS011;53428;47.686;16.584;2023-05-02T19:53:50;15.60;;;9.73;;
66575;SDS011;53428;47.686;16.584;2023-05-02T19:58:56;17.25;;;11.32;;
66575;SDS011;53428;47.686;16.584;2023-05-02T20:03:56;19.13;;;12.88;;
66575;SDS011;53428;47.686;16.584;2023-05-02T20:08:57;18.13;;;12.38;;
66575;SDS011;53428;47.686;16.584;2023-05-02T20:13:57;16.17;;;11.85;;
66575;SDS011;53428;47.686;16.584;2023-05-02T20:18:58;17.23;;;12.02;;
66575;SDS011;53428;47.686;16.584;2023-05-02T20:23:57;19.58;;;11.82;;
66575;SDS011;53428;47.686;16.584;2023-05-02T20:28:57;14.32;;;11.77;;
66575;SDS011;53428;47.686;16.584;2023-05-02T20:33:56;19.08;;;12.25;;
66575;SDS011;53428;47.686;16.584;2023-05-02T20:38:57;16.45;;;11.60;;
66575;SDS011;53428;47.686;16.584;2023-05-02T20:43:57;15.80;;;11.18;;
66575;SDS011;53428;47.686;16.584;2023-05-02T20:48:58;16.75;;;11.05;;
66575;SDS011;53428;47.686;16.584;2023-05-02T20:53:57;16.60;;;11.98;;
66575;SDS011;53428;47.686;16.584;2023-05-02T20:58:57;18.05;;;12.57;;
66575;SDS011;53428;47.686;16.584;2023-05-02T21:03:57;17.70;;;11.57;;
66575;SDS011;53428;47.686;16.584;2023-05-02T21:08:56;19.83;;;12.20;;
66575;SDS011;53428;47.686;16.584;2023-05-02T21:13:56;24.27;;;12.82;;
66575;SDS011;53428;47.686;16.584;2023-05-02T21:18:55;18.30;;;12.68;;
66575;SDS011;53428;47.686;16.584;2023-05-02T21:23:56;19.42;;;12.32;;
66575;SDS011;53428;47.686;16.584;2023-05-02T21:28:56;19.10;;;12.68;;
66575;SDS011;53428;47.686;16.584;2023-05-02T21:33:55;17.00;;;11.98;;
66575;SDS011;53428;47.686;16.584;2023-05-02T21:38:55;18.92;;;13.60;;
66575;SDS011;53428;47.686;16.584;2023-05-02T21:43:54;22.33;;;14.07;;
66575;SDS011;53428;47.686;16.584;2023-05-02T21:48:53;19.70;;;13.50;;
66575;SDS011;53428;47.686;16.584;2023-05-02T21:53:53;21.30;;;14.43;;
66575;SDS011;53428;47.686;16.584;2023-05-02T21:58:52;22.63;;;13.15;;
66575;SDS011;53428;47.686;16.584;2023-05-02T22:03:52;18.40;;;12.30;;
66575;SDS011;53428;47.686;16.584;2023-05-02T22:08:51;25.15;;;15.88;;
66575;SDS011;53428;47.686;16.584;2023-05-02T22:13:51;18.55;;;13.40;;
66575;SDS011;53428;47.686;16.584;2023-05-02T22:18:50;25.95;;;15.65;;
66575;SDS011;53428;47.686;16.584;2023-05-02T22:23:50;20.25;;;14.25;;
66575;SDS011;53428;47.686;16.584;2023-05-02T22:28:49;23.52;;;14.82;;
66575;SDS011;53428;47.686;16.584;2023-05-02T22:33:49;22.98;;;14.43;;
66575;SDS011;53428;47.686;16.584;2023-05-02T22:38:48;19.13;;;14.30;;
66575;SDS011;53428;47.686;16.584;2023-05-02T22:43:49;22.67;;;14.55;;
66575;SDS011;53428;47.686;16.584;2023-05-02T22:48:48;21.40;;;14.13;;
66575;SDS011;53428;47.686;16.584;2023-05-02T22:53:50;19.98;;;13.05;;
66575;SDS011;53428;47.686;16.584;2023-05-02T22:58:52;20.08;;;13.70;;
66575;SDS011;53428;47.686;16.584;2023-05-02T23:03:51;19.55;;;12.18;;
66575;SDS011;53428;47.686;16.584;2023-05-02T23:08:50;24.25;;;12.73;;
66575;SDS011;53428;47.686;16.584;2023-05-02T23:13:50;18.08;;;12.95;;
66575;SDS011;53428;47.686;16.584;2023-05-02T23:18:49;18.83;;;12.45;;
66575;SDS011;53428;47.686;16.584;2023-05-02T23:23:48;16.98;;;11.32;;
66575;SDS011;53428;47.686;16.584;2023-05-02T23:28:48;17.52;;;12.45;;
66575;SDS011;53428;47.686;16.584;2023-05-02T23:33:47;13.68;;;10.70;;
66575;SDS011;53428;47.686;16.584;2023-05-02T23:38:47;18.15;;;11.68;;
66575;SDS011;53428;47.686;16.584;2023-05-02T23:43:46;14.73;;;11.25;;
66575;SDS011;53428;47.686;16.584;2023-05-02T23:48:46;16.42;;;12.38;;
66575;SDS011;53428;47.686;16.584;2023-05-02T23:53:45;19.38;;;11.43;;
66575;SDS011;53428;47.686;16.584;2023-05-02T23:58:44;17.73;;;11.68;;
